Time;durP1;ratioP1;P1;durP2;ratioP2;P2;SDS_P1;SDS_P2;PMS_P1;PMS_P2;Temp;Humidity;BMP_temperature;BMP_pressure;BME280_temperature;BME280_humidity;BME280_pressure;Samples;Min_cycle;Max_cycle;Signal;HPM_P1;HPM_P2
2021/06/17 00:01:42;;;;;;;8.00;7.37;;;26.80;65.00;;;;;;4950612;28;20460;-86
2021/06/17 00:04:31;;;;;;;6.77;6.30;;;26.80;65.30;;;;;;4934484;28;21035;-85
2021/06/17 00:07:48;;;;;;;7.67;7.07;;;26.80;64.80;;;;;;4938869;28;20483;-87
2021/06/17 00:10:55;;;;;;;7.77;6.80;;;26.80;65.60;;;;;;4945332;28;20495;-84
2021/06/17 00:14:05;;;;;;;7.33;6.60;;;26.80;66.40;;;;;;4946952;28;20500;-85
2021/06/17 00:20:20;;;;;;;9.30;7.40;;;26.60;67.40;;;;;;4951515;28;20479;-85
2021/06/17 00:22:57;;;;;;;7.67;7.00;;;26.70;66.90;;;;;;4933944;28;20460;-84
2021/06/17 00:25:44;;;;;;;7.50;6.90;;;26.60;66.50;;;;;;4952119;28;20783;-85
2021/06/17 00:29:06;;;;;;;7.50;6.93;;;26.40;67.10;;;;;;4938531;28;20543;-85
2021/06/17 00:32:32;;;;;;;;;;;;;;;;;;;;;
2021/06/17 00:35:57;;;;;;;7.80;7.20;;;26.40;67.70;;;;;;4948231;28;20451;-85
2021/06/17 00:39:10;;;;;;;8.50;7.90;;;26.50;67.50;;;;;;4869463;29;20436;-85
2021/06/17 00:42:02;;;;;;;8.33;7.57;;;26.30;68.00;;;;;;4855921;29;21628;-83
2021/06/17 00:45:12;;;;;;;7.17;6.57;;;26.30;68.50;;;;;;4855953;29;21012;-85
2021/06/17 00:47:53;;;;;;;8.43;7.57;;;26.40;68.10;;;;;;4823559;29;20509;-84
2021/06/17 00:51:00;;;;;;;7.90;7.00;;;26.30;69.00;;;;;;4834897;29;20466;-88
2021/06/17 00:53:36;;;;;;;7.27;6.77;;;26.20;69.80;;;;;;4833945;29;20537;-83
2021/06/17 01:12:38;;;;;;;8.23;7.53;;;25.60;70.90;;;;;;4959255;23;20641;-85
2021/06/17 01:15:30;;;;;;;7.70;7.00;;;25.50;71.70;;;;;;4874935;29;20462;-87
2021/06/17 01:18:56;;;;;;;;;;;;;;;;;;;;;
2021/06/17 01:26:22;;;;;;;8.87;7.97;;;25.50;72.70;;;;;;4930328;29;20442;-85
2021/06/17 01:29:21;;;;;;;8.97;7.60;;;25.60;72.20;;;;;;4918641;29;20554;-84
2021/06/17 01:32:47;;;;;;;8.77;6.80;;;25.70;71.90;;;;;;4909449;29;20469;-87
2021/06/17 01:36:03;;;;;;;7.93;7.17;;;25.60;72.20;;;;;;4843899;29;20556;-85
2021/06/17 01:39:15;;;;;;;8.07;7.20;;;25.50;72.50;;;;;;4862346;29;20453;-89
2021/06/17 01:42:22;;;;;;;7.53;6.80;;;25.30;73.40;;;;;;4881150;29;20465;-86
2021/06/17 01:48:29;;;;;;;7.30;6.70;;;25.40;73.80;;;;;;4960472;28;20584;-84
2021/06/17 01:50:56;;;;;;;7.43;6.83;;;25.30;74.50;;;;;;4956093;28;20518;-82
2021/06/17 01:53:24;;;;;;;7.23;6.73;;;25.20;75.20;;;;;;4954777;28;20464;-82
2021/06/17 02:02:38;;;;;;;7.47;6.87;;;25.30;75.10;;;;;;4969272;28;20500;-86
2021/06/17 02:05:30;;;;;;;7.17;6.63;;;25.30;75.70;;;;;;4899156;28;20484;-86
2021/06/17 02:08:05;;;;;;;7.80;7.20;;;25.10;77.00;;;;;;4969977;28;20479;-87
2021/06/17 02:14:47;;;;;;;8.00;7.40;;;25.00;78.90;;;;;;4968127;29;20424;-85
2021/06/17 02:17:29;;;;;;;7.33;6.83;;;25.20;79.40;;;;;;5311511;23;20485;-83
2021/06/17 02:19:58;;;;;;;7.60;7.00;;;25.10;79.00;;;;;;4978802;28;20477;-84
2021/06/17 02:22:28;;;;;;;8.73;7.83;;;25.20;79.30;;;;;;4979721;28;20457;-84
2021/06/17 02:25:58;;;;;;;8.17;7.40;;;25.30;79.00;;;;;;4969754;28;20483;-82
2021/06/17 02:29:04;;;;;;;7.90;7.30;;;24.90;79.70;;;;;;4948400;29;20461;-82
2021/06/17 02:31:52;;;;;;;7.80;7.20;;;24.70;80.40;;;;;;4963055;28;20461;-86
2021/06/17 02:34:24;;;;;;;8.43;7.83;;;24.80;81.40;;;;;;4981818;28;20496;-82
2021/06/17 02:37:29;;;;;;;8.63;7.83;;;24.90;80.40;;;;;;4964436;29;20457;-88
2021/06/17 02:44:32;;;;;;;8.17;7.47;;;24.60;80.60;;;;;;4923640;29;20537;-85
2021/06/17 02:47:52;;;;;;;8.07;7.27;;;24.60;81.50;;;;;;4897676;29;20490;-83
2021/06/17 02:51:00;;;;;;;8.37;7.43;;;24.50;81.80;;;;;;4894435;29;20453;-85
2021/06/17 02:57:47;;;;;;;8.10;7.37;;;24.50;83.30;;;;;;4853257;29;20449;-83
2021/06/17 03:04:34;;;;;;;8.30;7.60;;;24.30;84.70;;;;;;4859320;29;20500;-88
2021/06/17 03:14:35;;;;;;;8.07;7.37;;;24.40;84.90;;;;;;4916706;29;20689;-87
2021/06/17 03:17:19;;;;;;;7.80;7.20;;;24.30;84.90;;;;;;4916528;29;20498;-85
2021/06/17 03:21:01;;;;;;;8.40;7.80;;;24.40;84.90;;;;;;4914964;29;20472;-87
2021/06/17 03:23:48;;;;;;;8.07;7.37;;;24.40;85.10;;;;;;4915107;29;20498;-87
2021/06/17 03:26:17;;;;;;;8.33;7.67;;;24.30;85.50;;;;;;4928259;29;20586;-84
2021/06/17 03:29:00;;;;;;;8.67;8.07;;;24.30;86.20;;;;;;4910683;29;20446;-86
2021/06/17 03:31:52;;;;;;;7.93;7.33;;;24.20;86.50;;;;;;4947823;28;20477;-87
2021/06/17 03:34:29;;;;;;;8.17;7.57;;;24.20;86.60;;;;;;4935474;29;20561;-84
2021/06/17 03:37:24;;;;;;;7.80;7.30;;;24.40;84.90;;;;;;4934798;29;20465;-83
2021/06/17 03:40:20;;;;;;;7.73;7.03;;;24.40;84.30;;;;;;4947371;28;20462;-83
2021/06/17 03:43:30;;;;;;;7.37;6.77;;;24.30;84.80;;;;;;4930116;29;20462;-85
2021/06/17 03:46:21;;;;;;;7.43;6.80;;;24.20;85.20;;;;;;4931400;29;20526;-85
2021/06/17 03:49:00;;;;;;;8.00;7.30;;;24.20;86.70;;;;;;4931230;29;20468;-86
2021/06/17 03:51:33;;;;;;;8.10;7.00;;;24.20;87.60;;;;;;4932775;28;20466;-84
2021/06/17 03:54:23;;;;;;;7.73;7.03;;;24.30;87.20;;;;;;4933247;29;20493;-87
2021/06/17 03:58:18;;;;;;;9.77;7.53;;;24.20;87.80;;;;;;4869224;29;20551;-84
2021/06/17 04:02:42;;;;;;;8.83;7.00;;;24.10;86.80;;;;;;4840443;29;20467;-86
2021/06/17 04:06:02;;;;;;;8.70;8.00;;;24.30;86.90;;;;;;4838342;29;20597;-85
2021/06/17 04:16:51;;;;;;;8.67;7.30;;;24.50;84.50;;;;;;4769407;30;20489;-84
2021/06/17 04:20:15;;;;;;;13.70;7.93;;;24.30;85.30;;;;;;4759869;30;20911;-84
2021/06/17 04:22:55;;;;;;;12.70;9.30;;;24.40;85.90;;;;;;4749295;30;20539;-83
2021/06/17 04:26:01;;;;;;;12.10;8.23;;;24.40;86.00;;;;;;4764569;30;20721;-83
2021/06/17 04:28:57;;;;;;;13.97;8.10;;;24.50;85.40;;;;;;4822001;29;20534;-84
2021/06/17 04:35:16;;;;;;;9.77;8.40;;;24.50;85.10;;;;;;4761390;30;20446;-83
2021/06/17 04:38:08;;;;;;;12.37;8.30;;;24.60;84.60;;;;;;4765862;30;20489;-85
2021/06/17 04:40:45;;;;;;;9.80;7.80;;;24.60;84.90;;;;;;4839569;29;20458;-84
2021/06/17 04:43:22;;;;;;;16.53;9.00;;;24.70;84.30;;;;;;4833997;29;20552;-85
2021/06/17 04:46:34;;;;;;;16.70;8.83;;;24.60;84.40;;;;;;4841610;29;20486;-84
2021/06/17 04:49:33;;;;;;;12.03;8.40;;;24.20;85.90;;;;;;4875714;29;20469;-83
2021/06/17 04:52:13;;;;;;;9.23;6.87;;;24.20;86.50;;;;;;4859248;29;20532;-85
2021/06/17 05:12:53;;;;;;;7.83;7.10;;;24.70;84.30;;;;;;5040960;28;20433;-84
2021/06/17 05:15:34;;;;;;;7.73;7.03;;;24.70;84.90;;;;;;5063973;28;20444;-84
2021/06/17 05:18:27;;;;;;;;;;;;;;;;;;;;;
2021/06/17 05:21:34;;;;;;;;;;;;;;;;;;;;;
2021/06/17 05:24:32;;;;;;;11.53;8.47;;;24.60;84.90;;;;;;4993341;28;20435;-85
2021/06/17 05:31:11;;;;;;;9.67;6.73;;;24.90;84.30;;;;;;5075292;28;20459;-86
2021/06/17 05:37:20;;;;;;;9.00;7.30;;;25.00;82.20;;;;;;5060799;28;20493;-87
2021/06/17 05:39:50;;;;;;;9.17;7.53;;;25.10;82.40;;;;;;5063998;28;20506;-86
2021/06/17 05:42:34;;;;;;;8.90;6.83;;;25.00;83.20;;;;;;5064931;28;20479;-84
2021/06/17 05:45:22;;;;;;;7.47;6.03;;;25.20;82.00;;;;;;5056463;28;20454;-84
2021/06/17 05:48:24;;;;;;;6.80;6.13;;;25.40;81.10;;;;;;5013102;28;20473;-84
2021/06/17 05:51:41;;;;;;;7.70;6.30;;;25.40;81.60;;;;;;5019272;28;20490;-84
2021/06/17 05:54:21;;;;;;;8.13;6.40;;;25.70;80.40;;;;;;5007583;28;20606;-83
2021/06/17 06:07:29;;;;;;;6.50;5.90;;;26.20;77.10;;;;;;4918300;28;20446;-84
2021/06/17 06:10:55;;;;;;;7.10;6.43;;;26.20;77.00;;;;;;4949051;28;20464;-83
2021/06/17 06:17:26;;;;;;;8.50;6.10;;;26.20;76.20;;;;;;4973072;28;20476;-85
2021/06/17 06:19:53;;;;;;;7.47;6.87;;;26.20;76.40;;;;;;4964680;28;20456;-84
2021/06/17 06:22:26;;;;;;;5.50;5.10;;;26.20;76.40;;;;;;4963823;28;20465;-86
2021/06/17 06:25:07;;;;;;;6.30;5.70;;;26.30;76.10;;;;;;4967369;28;20433;-86
2021/06/17 06:31:30;;;;;;;6.30;5.70;;;26.40;75.50;;;;;;4983894;28;20534;-86
2021/06/17 06:34:28;;;;;;;6.60;6.00;;;26.20;76.40;;;;;;4955803;28;20461;-86
2021/06/17 06:37:29;;;;;;;8.60;6.27;;;26.40;75.90;;;;;;4966128;28;20480;-83
2021/06/17 06:40:58;;;;;;;6.53;5.90;;;26.40;75.50;;;;;;4964649;28;20460;-87
2021/06/17 06:51:30;;;;;;;6.13;5.63;;;26.90;73.20;;;;;;5010682;28;20532;-84
2021/06/17 06:54:34;;;;;;;6.33;5.50;;;26.80;73.20;;;;;;5025238;28;20447;-86
2021/06/17 06:57:25;;;;;;;7.50;6.33;;;26.70;73.40;;;;;;5021581;28;20541;-86
2021/06/17 07:00:04;;;;;;;5.87;5.30;;;26.80;74.20;;;;;;5024710;28;20525;-85
2021/06/17 07:02:53;;;;;;;7.23;6.63;;;27.00;72.60;;;;;;5042092;28;20460;-86
2021/06/17 07:06:31;;;;;;;6.23;5.73;;;27.10;73.10;;;;;;4924735;28;20875;-85
2021/06/17 07:09:25;;;;;;;6.07;5.57;;;27.30;72.10;;;;;;4932254;29;20546;-86
2021/06/17 07:16:06;;;;;;;6.53;5.73;;;27.60;71.50;;;;;;4896773;29;20558;-87
2021/06/17 07:19:18;;;;;;;7.20;5.87;;;27.70;71.10;;;;;;4867519;29;20490;-83
2021/06/17 07:22:27;;;;;;;6.13;5.60;;;27.60;70.80;;;;;;4917871;28;20452;-86
2021/06/17 07:25:16;;;;;;;5.70;5.30;;;27.60;70.20;;;;;;4988733;28;20647;-85
2021/06/17 07:28:03;;;;;;;6.57;5.70;;;27.50;71.50;;;;;;4962186;28;20448;-89
2021/06/17 07:31:36;;;;;;;;;;;;;;;;;;;;;
2021/06/17 07:38:09;;;;;;;5.60;5.20;;;27.90;69.60;;;;;;4923086;28;20555;-84
2021/06/17 07:41:36;;;;;;;7.00;5.43;;;27.80;69.70;;;;;;4960824;28;20452;-85
2021/06/17 07:45:31;;;;;;;;;;;;;;;;;;;;;
2021/06/17 07:48:11;;;;;;;6.50;5.50;;;28.50;69.90;;;;;;4935912;28;20470;-87
2021/06/17 07:51:04;;;;;;;6.50;5.90;;;28.60;68.10;;;;;;4998689;28;20435;-87
2021/06/17 08:13:49;;;;;;;5.30;4.90;;;29.30;64.00;;;;;;4874613;29;20451;-87
2021/06/17 08:16:43;;;;;;;6.23;5.73;;;29.40;63.50;;;;;;4887362;29;20450;-84
2021/06/17 08:20:01;;;;;;;6.00;5.43;;;29.50;62.50;;;;;;4834995;29;20453;-87
2021/06/17 08:22:45;;;;;;;7.03;4.97;;;29.70;63.00;;;;;;4856700;29;21827;-85
2021/06/17 08:29:00;;;;;;;12.07;5.57;;;30.20;61.10;;;;;;4847635;29;20465;-86
2021/06/17 08:34:57;;;;;;;7.43;5.23;;;30.50;60.10;;;;;;4900837;29;20457;-83
2021/06/17 08:38:39;;;;;;;6.30;5.80;;;30.60;59.70;;;;;;4887935;29;20487;-85
2021/06/17 08:52:45;;;;;;;6.10;5.57;;;31.30;56.50;;;;;;4880436;29;20462;-85
2021/06/17 08:56:29;;;;;;;;;;;;;;;;;;;;;
2021/06/17 09:03:48;;;;;;;5.77;5.27;;;32.10;54.80;;;;;;4825057;29;20465;-84
2021/06/17 09:06:32;;;;;;;5.37;4.97;;;32.40;54.00;;;;;;4836721;29;20453;-85
2021/06/17 09:09:11;;;;;;;5.53;5.03;;;32.60;53.40;;;;;;4942778;28;20445;-82
2021/06/17 09:11:41;;;;;;;5.53;5.13;;;33.10;52.70;;;;;;4977293;28;20446;-86
2021/06/17 09:14:57;;;;;;;5.47;4.97;;;33.50;51.60;;;;;;4994196;28;20960;-85
2021/06/17 09:17:41;;;;;;;5.53;5.10;;;33.60;51.40;;;;;;4994552;28;20906;-84
2021/06/17 09:20:26;;;;;;;5.73;5.20;;;33.60;51.60;;;;;;4948884;28;20442;-86
2021/06/17 09:24:08;;;;;;;5.20;4.73;;;33.90;51.00;;;;;;4984095;28;20447;-87
2021/06/17 09:34:29;;;;;;;5.60;5.10;;;34.70;49.30;;;;;;4944171;29;20598;-85
2021/06/17 09:45:48;;;;;;;;;;;;;;;;;;;;;
2021/06/17 09:53:07;;;;;;;5.23;4.93;;;35.80;46.40;;;;;;4861713;28;20622;-86
2021/06/17 09:56:14;;;;;;;6.50;4.57;;;36.40;45.30;;;;;;4940842;28;20492;-87
2021/06/17 09:59:09;;;;;;;5.23;4.70;;;37.00;43.60;;;;;;5016425;28;20560;-87
2021/06/17 10:02:08;;;;;;;5.23;4.73;;;36.90;43.50;;;;;;4998947;28;20445;-87
2021/06/17 10:09:23;;;;;;;;;;;;;;;;;;;;;
2021/06/17 10:15:55;;;;;;;5.30;4.90;;;37.50;41.90;;;;;;4920950;29;20532;-82
2021/06/17 10:18:35;;;;;;;4.97;4.67;;;37.70;41.80;;;;;;4960567;28;20484;-88
2021/06/17 10:22:09;;;;;;;5.03;4.63;;;38.10;40.50;;;;;;4881989;29;20452;-85
2021/06/17 10:37:14;;;;;;;;;;;;;;;;;;;;;
2021/06/17 10:40:34;;;;;;;4.80;4.50;;;37.60;40.10;;;;;;4868489;29;20446;-85
2021/06/17 10:47:34;;;;;;;4.37;4.03;;;37.70;39.40;;;;;;4923938;28;20566;-85
2021/06/17 10:50:51;;;;;;;4.30;4.00;;;37.60;38.30;;;;;;4948426;28;20456;-86
2021/06/17 10:53:50;;;;;;;5.33;4.13;;;37.90;38.40;;;;;;4945932;28;20507;-85
2021/06/17 10:56:48;;;;;;;4.50;4.20;;;38.10;38.60;;;;;;4945038;28;20534;-85
2021/06/17 11:07:57;;;;;;;4.93;4.63;;;37.60;39.80;;;;;;4960690;28;20443;-83
2021/06/17 11:26:50;;;;;;;4.13;3.80;;;38.70;38.40;;;;;;4827553;22;10002225;-87
2021/06/17 11:41:34;;;;;;;4.67;4.27;;;38.20;38.80;;;;;;4972823;28;20430;-84
2021/06/17 11:44:28;;;;;;;;;;;;;;;;;;;;;
2021/06/17 11:47:17;;;;;;;5.27;4.87;;;38.50;37.60;;;;;;4977170;28;20474;-86
2021/06/17 11:49:53;;;;;;;4.50;4.03;;;37.70;38.30;;;;;;5017035;28;20449;-86
2021/06/17 11:52:45;;;;;;;4.30;3.83;;;37.90;38.40;;;;;;5012399;28;20445;-85
2021/06/17 11:55:45;;;;;;;4.50;4.20;;;37.00;39.90;;;;;;5013857;28;20532;-86
2021/06/17 11:58:41;;;;;;;5.37;4.50;;;37.50;38.00;;;;;;5016139;28;20497;-85
2021/06/17 12:05:37;;;;;;;4.50;4.20;;;38.10;37.40;;;;;;4892082;29;20870;-85
2021/06/17 12:08:11;;;;;;;4.53;4.17;;;37.70;37.70;;;;;;4923728;29;20980;-87
2021/06/17 12:18:06;;;;;;;5.87;4.60;;;38.20;37.20;;;;;;4834660;29;21238;-87
2021/06/17 12:21:07;;;;;;;5.87;5.37;;;38.30;37.50;;;;;;4907788;28;20430;-85
2021/06/17 12:35:28;;;;;;;11.47;6.47;;;38.20;40.20;;;;;;5015730;28;20465;-85
2021/06/17 12:38:49;;;;;;;7.03;5.30;;;37.50;40.80;;;;;;4997519;28;20528;-86
2021/06/17 12:41:23;;;;;;;6.93;6.43;;;37.80;40.80;;;;;;4918093;28;20582;-86
2021/06/17 12:43:56;;;;;;;6.93;6.33;;;37.50;41.00;;;;;;4989223;28;20644;-86
2021/06/17 12:46:40;;;;;;;6.90;6.40;;;37.20;41.70;;;;;;4976712;28;20538;-84
2021/06/17 12:52:48;;;;;;;6.90;6.30;;;36.80;42.60;;;;;;4989956;28;20462;-86
2021/06/17 12:56:00;;;;;;;7.50;6.80;;;37.00;42.40;;;;;;5010030;28;20459;-85
2021/06/17 12:59:04;;;;;;;7.30;6.70;;;36.80;42.80;;;;;;4952692;28;20479;-86
2021/06/17 13:02:01;;;;;;;7.63;6.60;;;37.00;42.30;;;;;;4986852;28;20692;-85
2021/06/17 13:04:36;;;;;;;7.30;6.80;;;36.80;42.70;;;;;;5007215;28;20516;-83
2021/06/17 13:07:23;;;;;;;7.37;6.77;;;36.60;42.60;;;;;;4991040;28;20479;-85
2021/06/17 13:10:27;;;;;;;7.40;6.60;;;36.40;43.10;;;;;;4999886;28;20457;-86
2021/06/17 13:13:28;;;;;;;8.80;7.30;;;36.30;43.60;;;;;;4988496;28;20554;-84
2021/06/17 13:16:01;;;;;;;7.50;6.97;;;36.30;43.30;;;;;;5011508;28;20465;-84
2021/06/17 13:18:52;;;;;;;7.30;6.70;;;36.50;43.00;;;;;;4997036;28;20489;-86
2021/06/17 13:21:39;;;;;;;;;;;;;;;;;;;;;
2021/06/17 13:46:42;;;;;;;10.10;7.00;;;35.50;44.20;;;;;;4904436;28;20645;-87
2021/06/17 13:50:10;;;;;;;;;;;;;;;;;;;;;
2021/06/17 13:55:16;;;;;;;;;;;;;;;;;;;;;
2021/06/17 14:04:44;;;;;;;7.03;6.43;;;36.20;43.40;;;;;;4845336;29;20583;-85
2021/06/17 14:11:59;;;;;;;7.53;5.97;;;36.50;41.60;;;;;;4932107;28;20451;-85
2021/06/17 14:15:28;;;;;;;7.17;5.73;;;36.40;41.40;;;;;;4946554;28;20460;-85
2021/06/17 14:18:20;;;;;;;6.57;5.93;;;36.90;40.90;;;;;;4915174;29;20490;-84
2021/06/17 14:21:06;;;;;;;9.50;6.37;;;36.30;41.50;;;;;;4942465;28;21166;-84
2021/06/17 14:24:37;;;;;;;7.00;6.40;;;36.00;42.10;;;;;;4927750;28;20460;-87
2021/06/17 14:30:28;;;;;;;7.37;6.77;;;36.10;42.30;;;;;;4887674;29;20523;-84
2021/06/17 14:33:24;;;;;;;7.27;6.57;;;36.20;42.20;;;;;;4883979;29;20538;-85
2021/06/17 14:36:13;;;;;;;8.53;6.27;;;36.30;41.80;;;;;;4869067;29;20495;-84
2021/06/17 14:38:54;;;;;;;6.60;5.90;;;36.50;41.10;;;;;;4895334;29;20573;-86
2021/06/17 14:42:34;;;;;;;6.20;5.70;;;36.40;41.10;;;;;;4906474;29;20513;-84
2021/06/17 14:45:38;;;;;;;5.97;5.53;;;36.40;41.10;;;;;;4890520;29;20485;-86
2021/06/17 14:49:08;;;;;;;;;;;;;;;;;;;;;
2021/06/17 14:59:34;;;;;;;8.27;6.37;;;35.70;42.00;;;;;;4848910;29;20500;-85
2021/06/17 15:14:40;;;;;;;;;;;;;;;;;;;;;
2021/06/17 15:51:52;;;;;;;6.10;5.50;;;35.90;45.50;;;;;;6029077;23;20419;-86
2021/06/17 16:05:30;;;;;;;5.67;5.03;;;35.50;45.30;;;;;;6097979;23;20524;-86
2021/06/17 16:08:47;;;;;;;10.80;5.37;;;35.40;45.60;;;;;;6068508;23;20707;-85
2021/06/17 16:11:28;;;;;;;7.00;5.80;;;35.20;46.00;;;;;;6064409;23;20448;-84
2021/06/17 16:14:43;;;;;;;7.00;6.13;;;35.20;46.00;;;;;;5934212;24;20384;-84
2021/06/17 16:17:53;;;;;;;8.70;8.00;;;35.10;46.10;;;;;;5916201;23;20603;-82
2021/06/17 16:21:32;;;;;;;8.73;7.00;;;35.10;46.10;;;;;;5986620;23;20446;-85
2021/06/17 16:24:20;;;;;;;9.17;6.27;;;35.20;46.00;;;;;;6144014;23;20791;-85
2021/06/17 16:31:34;;;;;;;7.67;5.10;;;35.50;45.40;;;;;;5935614;24;20489;-82
2021/06/17 16:46:38;;;;;;;7.00;5.17;;;35.30;45.80;;;;;;5953011;23;20401;-88
2021/06/17 16:50:01;;;;;;;8.50;5.60;;;35.60;45.80;;;;;;6053870;23;20481;-86
2021/06/17 16:53:55;;;;;;;9.20;5.03;;;35.50;45.20;;;;;;6004009;23;20438;-88
2021/06/17 16:56:55;;;;;;;8.63;5.20;;;35.30;44.90;;;;;;5927984;24;20513;-84
2021/06/17 17:03:36;;;;;;;7.77;4.90;;;35.30;45.90;;;;;;6030146;23;20407;-83
2021/06/17 17:10:02;;;;;;;6.33;4.80;;;35.20;46.40;;;;;;5921202;24;20386;-85
2021/06/17 17:12:55;;;;;;;7.73;5.23;;;35.20;47.10;;;;;;5905343;24;20421;-84
2021/06/17 17:31:15;;;;;;;7.83;4.13;;;35.20;47.10;;;;;;6196612;23;20437;-84
2021/06/17 17:34:15;;;;;;;;;;;;;;;;;;;;;
2021/06/17 17:40:43;;;;;;;6.23;5.60;;;35.00;47.60;;;;;;6066508;23;20401;-85
2021/06/17 17:43:50;;;;;;;6.63;4.20;;;34.70;47.90;;;;;;6073099;23;20397;-80
2021/06/17 17:46:55;;;;;;;6.70;4.30;;;34.60;48.20;;;;;;6084165;23;20437;-83
2021/06/17 17:53:28;;;;;;;5.63;3.73;;;34.30;48.60;;;;;;6080022;23;20348;-84
2021/06/17 17:56:23;;;;;;;4.20;3.80;;;34.20;48.90;;;;;;6045454;23;20406;-83
2021/06/17 18:02:12;;;;;;;7.10;3.80;;;34.10;48.80;;;;;;6041931;23;20417;-82
2021/06/17 18:05:00;;;;;;;4.97;3.83;;;34.10;48.80;;;;;;6054829;23;20417;-82
2021/06/17 18:07:41;;;;;;;7.07;4.03;;;34.10;48.90;;;;;;6039578;23;20464;-85
2021/06/17 18:10:49;;;;;;;5.57;3.57;;;34.20;48.70;;;;;;6043951;23;20923;-85
2021/06/17 18:13:43;;;;;;;5.63;4.03;;;34.10;48.60;;;;;;6033663;23;20427;-85
2021/06/17 18:17:01;;;;;;;5.57;3.70;;;34.10;48.50;;;;;;6041786;23;20405;-82
2021/06/17 18:20:01;;;;;;;5.73;3.37;;;34.00;48.40;;;;;;6160566;23;20513;-84
2021/06/17 18:23:29;;;;;;;7.03;4.70;;;33.90;48.60;;;;;;6156741;23;20425;-84
2021/06/17 18:30:47;;;;;;;6.20;4.33;;;33.80;48.90;;;;;;6029573;23;20485;-85
2021/06/17 18:33:31;;;;;;;5.37;3.83;;;33.80;49.10;;;;;;6025656;23;21334;-82
2021/06/17 18:36:27;;;;;;;4.63;3.90;;;33.80;49.20;;;;;;6009215;23;20502;-85
2021/06/17 18:39:17;;;;;;;6.40;4.50;;;33.70;49.30;;;;;;5973377;23;20439;-85
2021/06/17 18:42:06;;;;;;;6.37;4.20;;;33.50;49.20;;;;;;6114354;23;20460;-87
2021/06/17 18:44:50;;;;;;;5.37;4.87;;;33.40;49.50;;;;;;6156046;23;20414;-84
2021/06/17 18:47:23;;;;;;;4.37;4.07;;;33.40;49.60;;;;;;6154696;23;20472;-87
2021/06/17 18:49:59;;;;;;;6.40;3.63;;;33.40;49.70;;;;;;6128753;23;20416;-86
2021/06/17 18:52:55;;;;;;;5.13;3.93;;;33.50;49.70;;;;;;6110764;23;20486;-87
2021/06/17 18:55:49;;;;;;;5.23;4.20;;;33.50;49.70;;;;;;6123666;23;20403;-82
2021/06/17 18:58:34;;;;;;;;;;;;;;;;;;;;;
2021/06/17 19:01:15;;;;;;;6.53;4.00;;;33.40;49.70;;;;;;6150513;23;20513;-85
2021/06/17 19:04:04;;;;;;;6.37;4.23;;;33.40;49.90;;;;;;6126924;23;20754;-85
2021/06/17 19:07:15;;;;;;;4.00;3.57;;;33.20;50.10;;;;;;6127823;23;20446;-85
2021/06/17 19:10:08;;;;;;;10.40;4.87;;;33.10;50.40;;;;;;6143950;23;21372;-86
2021/06/17 19:12:46;;;;;;;6.77;4.40;;;33.10;50.80;;;;;;6149513;23;20525;-85
2021/06/17 19:15:45;;;;;;;5.60;4.10;;;33.00;51.00;;;;;;6112668;23;20396;-85
2021/06/17 19:18:39;;;;;;;7.93;3.83;;;33.00;51.30;;;;;;6119683;23;20486;-86
2021/06/17 19:21:15;;;;;;;6.03;3.90;;;32.90;51.40;;;;;;6121308;23;20412;-84
2021/06/17 19:24:26;;;;;;;3.97;3.60;;;32.90;51.60;;;;;;6117481;23;20403;-86
2021/06/17 19:27:05;;;;;;;6.80;4.10;;;32.80;51.90;;;;;;6113221;23;20427;-84
2021/06/17 19:33:45;;;;;;;;;;;;;;;;;;;;;
2021/06/17 19:42:02;;;;;;;6.20;3.80;;;32.60;53.10;;;;;;6065822;23;20405;-85
2021/06/17 19:48:48;;;;;;;7.50;3.90;;;32.40;53.70;;;;;;5858801;24;20540;-82
2021/06/17 19:52:46;;;;;;;6.00;3.93;;;32.40;53.90;;;;;;5883212;24;20452;-86
2021/06/17 19:59:35;;;;;;;6.00;3.87;;;32.30;54.10;;;;;;5897693;24;20441;-83
2021/06/17 20:02:42;;;;;;;7.50;4.43;;;32.20;54.80;;;;;;5889358;24;20406;-86
2021/06/17 20:06:45;;;;;;;;;;;;;;;;;;;;;
2021/06/17 20:13:23;;;;;;;;;;;;;;;;;;;;;
2021/06/17 20:16:27;;;;;;;6.33;4.00;;;32.00;53.90;;;;;;5944792;24;20475;-84
2021/06/17 20:19:18;;;;;;;5.20;3.47;;;32.00;54.00;;;;;;5945208;24;20502;-86
2021/06/17 20:22:10;;;;;;;6.27;3.77;;;31.90;54.00;;;;;;6000197;23;20456;-85
2021/06/17 20:25:04;;;;;;;5.33;3.20;;;31.90;53.90;;;;;;6066487;23;20400;-86
2021/06/17 20:28:02;;;;;;;4.50;3.40;;;31.90;53.90;;;;;;6030301;23;20774;-84
2021/06/17 20:30:52;;;;;;;5.00;3.23;;;31.90;53.90;;;;;;6006267;23;20450;-84
2021/06/17 20:33:19;;;;;;;5.20;3.00;;;31.90;54.00;;;;;;6044314;23;20500;-84
2021/06/17 20:35:48;;;;;;;4.57;3.13;;;31.90;53.90;;;;;;6036985;23;20433;-83
2021/06/17 20:38:26;;;;;;;4.40;3.23;;;31.80;54.10;;;;;;6038196;23;20477;-85
2021/06/17 20:40:56;;;;;;;5.67;3.27;;;31.70;54.30;;;;;;6037333;23;20413;-85
2021/06/17 20:43:47;;;;;;;8.17;3.50;;;31.70;54.50;;;;;;6036618;23;20425;-85
2021/06/17 20:46:21;;;;;;;3.30;2.90;;;31.60;54.60;;;;;;6035994;23;21328;-85
2021/06/17 20:48:51;;;;;;;9.03;4.27;;;31.60;54.70;;;;;;6036159;23;20449;-84
2021/06/17 20:51:28;;;;;;;4.93;3.40;;;31.60;54.80;;;;;;6036053;23;20782;-84
2021/06/17 20:54:30;;;;;;;4.63;3.10;;;31.60;54.70;;;;;;5900970;24;20394;-84
2021/06/17 21:00:31;;;;;;;7.00;4.07;;;31.60;54.30;;;;;;5919433;24;20418;-84
2021/06/17 21:03:22;;;;;;;8.57;3.80;;;31.60;54.10;;;;;;5940741;23;20430;-84
2021/06/17 21:06:10;;;;;;;4.10;3.50;;;31.50;54.20;;;;;;5978974;23;20419;-83
2021/06/17 21:12:56;;;;;;;6.57;3.50;;;31.30;54.20;;;;;;5920055;24;20849;-83
2021/06/17 21:16:04;;;;;;;4.20;3.37;;;31.20;54.20;;;;;;5897501;24;20428;-84
2021/06/17 21:19:12;;;;;;;7.57;3.93;;;31.20;54.20;;;;;;5874075;24;20434;-85
2021/06/17 21:22:07;;;;;;;4.73;3.40;;;31.20;54.30;;;;;;5821656;24;20508;-83
2021/06/17 21:25:06;;;;;;;4.90;3.47;;;31.10;54.30;;;;;;5751142;24;20420;-84
2021/06/17 21:27:44;;;;;;;4.40;3.17;;;31.10;54.60;;;;;;5733011;25;20514;-84
2021/06/17 21:30:32;;;;;;;4.73;2.80;;;31.10;54.70;;;;;;5760593;24;21139;-83
2021/06/17 21:33:53;;;;;;;4.23;3.70;;;31.00;54.70;;;;;;5848891;24;20420;-81
2021/06/17 21:36:42;;;;;;;4.47;3.30;;;31.00;54.60;;;;;;5847296;24;20440;-87
2021/06/17 21:42:41;;;;;;;7.40;2.93;;;31.00;54.80;;;;;;5949122;24;20963;-83
2021/06/17 21:45:11;;;;;;;3.77;3.37;;;30.90;55.00;;;;;;5923859;24;20497;-84
2021/06/17 21:47:57;;;;;;;6.30;2.63;;;30.90;55.00;;;;;;5923978;24;20441;-82
2021/06/17 21:50:29;;;;;;;5.50;3.50;;;30.90;54.90;;;;;;5977818;23;21221;-84
2021/06/17 21:53:05;;;;;;;5.30;3.10;;;30.80;54.80;;;;;;6008285;23;20410;-85
2021/06/17 21:55:40;;;;;;;3.83;3.17;;;30.90;54.70;;;;;;6089586;23;20430;-82
2021/06/17 21:58:30;;;;;;;4.63;2.77;;;30.80;54.70;;;;;;6151226;23;20454;-85
2021/06/17 22:01:04;;;;;;;4.97;3.00;;;30.80;54.80;;;;;;6152277;23;20446;-84
2021/06/17 22:03:41;;;;;;;3.80;2.80;;;30.70;54.90;;;;;;6128339;23;20421;-84
2021/06/17 22:06:17;;;;;;;6.47;3.50;;;30.70;55.00;;;;;;6151304;23;20503;-84
2021/06/17 22:08:47;;;;;;;4.77;4.07;;;30.70;55.10;;;;;;6151173;23;20526;-84
2021/06/17 22:11:23;;;;;;;4.37;3.37;;;30.60;55.10;;;;;;6127627;23;20418;-84
2021/06/17 22:13:59;;;;;;;6.27;4.50;;;30.60;55.20;;;;;;6151234;23;20418;-84
2021/06/17 22:17:14;;;;;;;;;;;;;;;;;;;;;
2021/06/17 22:20:06;;;;;;;5.00;3.93;;;30.80;55.00;;;;;;6147181;23;20470;-83
2021/06/17 22:22:46;;;;;;;8.07;5.40;;;30.70;54.90;;;;;;6153213;23;20469;-83
2021/06/17 22:25:27;;;;;;;7.57;4.97;;;30.40;55.40;;;;;;6152587;23;20407;-86
2021/06/17 22:28:05;;;;;;;5.30;4.73;;;30.30;55.80;;;;;;6152326;23;20465;-84
2021/06/17 22:30:49;;;;;;;6.03;4.53;;;30.40;55.80;;;;;;6148517;23;20411;-83
2021/06/17 22:33:20;;;;;;;7.73;5.20;;;30.30;56.10;;;;;;6151165;23;20418;-84
2021/06/17 22:35:48;;;;;;;6.10;5.03;;;30.30;56.30;;;;;;6129224;23;20407;-85
2021/06/17 22:38:16;;;;;;;9.27;5.50;;;30.30;56.50;;;;;;6153496;23;20473;-85
2021/06/17 22:40:43;;;;;;;10.37;5.60;;;30.20;56.50;;;;;;6154992;23;20410;-83
2021/06/17 22:43:18;;;;;;;6.40;5.23;;;30.20;56.70;;;;;;6151972;23;20794;-85
2021/06/17 22:45:57;;;;;;;6.73;5.40;;;30.20;56.80;;;;;;6130344;23;20383;-83
2021/06/17 22:48:27;;;;;;;5.47;5.00;;;30.20;56.90;;;;;;6130737;23;20410;-86
2021/06/17 22:51:03;;;;;;;5.70;4.73;;;30.20;57.10;;;;;;6158335;23;20410;-84
2021/06/17 22:53:31;;;;;;;10.80;4.87;;;30.10;57.20;;;;;;6132570;23;20735;-84
2021/06/17 22:59:32;;;;;;;5.43;4.57;;;30.20;57.60;;;;;;6163614;23;20441;-84
2021/06/17 23:02:43;;;;;;;4.90;3.90;;;30.00;57.80;;;;;;6140504;23;20419;-82
2021/06/17 23:05:14;;;;;;;7.60;5.10;;;29.80;58.20;;;;;;6135844;23;20425;-86
2021/06/17 23:08:49;;;;;;;5.60;4.60;;;29.80;58.50;;;;;;6145293;23;20435;-84
2021/06/17 23:11:27;;;;;;;6.80;4.97;;;29.80;58.80;;;;;;6014726;23;20422;-86
2021/06/17 23:18:01;;;;;;;5.50;3.70;;;29.90;58.70;;;;;;6038564;23;20449;-85
2021/06/17 23:20:34;;;;;;;6.40;4.67;;;29.80;59.30;;;;;;6174824;23;20427;-86
2021/06/17 23:24:01;;;;;;;4.87;4.30;;;29.80;59.60;;;;;;6175416;23;20391;-84
2021/06/17 23:27:23;;;;;;;7.70;4.43;;;29.90;59.60;;;;;;6172103;23;20504;-86
2021/06/17 23:30:17;;;;;;;5.70;4.50;;;29.90;59.70;;;;;;6153455;23;20461;-85